Flight Track Log - Related Links

Times and Time Zones

All times are in EDT time to prevent confusion due to time zone crossing. See the AAL832 flight status page for this flight to view local times or setup timezone preferences in your user account.

Time Position Orientation Groundspeed Altitude Reporting Facility
EDT Latitude Longitude Course Direction KTS MPH feet Rate Location/Type
Mon 12:51:49 PM 33.9333 -118.4500 90° East 192 221 1,700  Level Southern California TRACON
Mon 12:52:53 PM 33.8683 -118.4947 210° Southwest 240 276 3,400 1,619 Climbing Los Angeles Center
Mon 12:53:00 PM 33.7557 -118.6076 132° Southeast  Level FlightAware Approximate
Mon 12:53:55 PM 33.8044 -118.5036 187° South 267 307 5,100  Level Los Angeles Center
Mon 12:54:00 PM 33.6786 -118.4880 101° East  Level FlightAware Approximate
Mon 12:54:57 PM 33.7125 -118.5131 185° South 283 326 8,400  Level Los Angeles Center
Mon 12:55:00 PM 33.6333 -118.3455 90° East  Level FlightAware Approximate
Mon 12:55:59 PM 33.6731 -118.4289 119° Southeast 311 358 10,500  Level Los Angeles Center
Mon 12:56:00 PM 33.6333 -118.1905 90° East  Level FlightAware Approximate
Mon 12:57:00 PM 33.6333 -118.0355 90° East  Level FlightAware Approximate
Mon 12:57:01 PM 33.6728 -118.3142 90° East 348 400 11,400  Level Los Angeles Center
Mon 12:58:03 PM 33.6714 -118.1614 91° East 387 445 13,700 2,081 Climbing Los Angeles Center
Mon 12:59:05 PM 33.6692 -118.0253 91° East 407 468 15,700 2,064 Climbing Los Angeles Center
Mon 01:00:08 PM 33.6678 -117.8883 91° East 413 475 18,000 1,968 Climbing Los Angeles Center
Mon 01:01:10 PM 33.6656 -117.7492 91° East 419 482 19,800 1,742 Climbing Los Angeles Center
Mon 01:02:12 PM 33.6642 -117.6089 91° East 422 486 21,600 1,790 Climbing Los Angeles Center
Mon 01:03:14 PM 33.6592 -117.4353 92° East 434 499 23,500 1,776 Climbing Los Angeles Center
Mon 01:04:17 PM 33.6569 -117.2872 91° East 442 509 25,300 1,440 Climbing Los Angeles Center
Mon 01:05:19 PM 33.6542 -117.1367 91° East 451 519 26,500 1,065 Climbing Los Angeles Center
Mon 01:06:21 PM 33.6506 -116.9822 92° East 463 533 27,500 677 Climbing Los Angeles Center
Mon 01:07:23 PM 33.6464 -116.7997 92° East 486 559 27,900 194 Climbing Los Angeles Center
Mon 01:08:25 PM 33.6417 -116.6414 92° East 475 547 27,900  Level Los Angeles Center
Mon 01:09:27 PM 33.6375 -116.4847 92° East 470 541 27,900  Level Los Angeles Center
Mon 01:10:29 PM 33.6325 -116.3289 92° East 465 535 27,900  Level Los Angeles Center
Mon 01:11:31 PM 33.6481 -116.1719 83° East 472 543 27,900 48 Level Los Angeles Center
Mon 01:12:34 PM 33.6928 -116.0239 70° East 472 543 28,000  Climbing Los Angeles Center
Mon 01:13:36 PM 33.7453 -115.8481 70° East 466 536 27,900  Descending Los Angeles Center
Mon 01:14:38 PM 33.7911 -115.7028 69° East 464 534 28,000 48 Climbing Los Angeles Center
Mon 01:15:40 PM 33.8353 -115.5575 70° East 461 531 28,000 -48 Level Los Angeles Center
Mon 01:16:42 PM 33.8808 -115.4119 69° East 464 534 27,900 -48 Descending Los Angeles Center
Mon 01:17:44 PM 33.9253 -115.2678 70° East 461 531 27,900  Level Los Angeles Center
Mon 01:18:46 PM 33.9706 -115.1222 69° East 462 532 27,900 48 Level Los Angeles Center
Mon 01:19:48 PM 34.0250 -114.9464 69° East 465 535 28,000 48 Climbing Los Angeles Center
Mon 01:20:51 PM 34.0708 -114.7997 69° East 468 539 28,000 -48 Level Los Angeles Center
Mon 01:21:53 PM 34.1150 -114.6528 70° East 468 539 27,900 -48 Descending Los Angeles Center
Mon 01:22:55 PM 34.1611 -114.5047 69° East 473 544 27,900  Level Los Angeles Center
Mon 01:23:57 PM 34.2053 -114.3558 70° East 472 543 27,900  Level Los Angeles Center
Mon 01:24:59 PM 34.2511 -114.2086 69° East 470 541 27,900 48 Level Los Angeles Center
Mon 01:26:01 PM 34.3033 -114.0308 70° East 469 540 28,000 46 Climbing Los Angeles Center
Mon 01:27:10 PM 34.3511 -113.8717 70° East 473 544 28,000  Level Albuquerque Center
Mon 01:28:12 PM 34.3950 -113.7236 70° East 472 543 28,000  Level Albuquerque Center
Mon 01:29:14 PM 34.4406 -113.5697 70° East 471 542 28,000  Level Albuquerque Center
Mon 01:30:16 PM 34.4822 -113.4200 71° East 473 544 28,000  Level Albuquerque Center
Mon 01:31:18 PM 34.5350 -113.2431 70° East 471 542 28,000  Level Albuquerque Center
Mon 01:32:20 PM 34.5778 -113.0928 71° East 472 543 28,000  Level Albuquerque Center
Mon 01:33:22 PM 34.6206 -112.9439 71° East 472 543 28,000  Level Albuquerque Center
Mon 01:34:24 PM 34.6617 -112.7944 71° East 472 543 28,000  Level Albuquerque Center
Mon 01:35:26 PM 34.7042 -112.6439 71° East 475 547 28,000 -48 Level Albuquerque Center
Mon 01:36:28 PM 34.7567 -112.4644 70° East 475 547 27,900  Descending Albuquerque Center
Mon 01:37:31 PM 34.7983 -112.3153 71° East 473 544 28,000 48 Climbing Albuquerque Center
Mon 01:38:33 PM 34.8397 -112.1650 71° East 473 544 28,000  Level Albuquerque Center
Mon 01:39:35 PM 34.8811 -112.0125 72° East 478 550 28,000  Level Albuquerque Center
Mon 01:40:37 PM 34.9325 -111.8322 71° East 475 547 28,000 -48 Level Albuquerque Center
Mon 01:41:39 PM 34.9722 -111.6917 71° East 476 548 27,900  Descending Albuquerque Center
Mon 01:42:41 PM 35.0128 -111.5400 72° East 472 543 28,000 48 Climbing Albuquerque Center
Mon 01:43:43 PM 35.0536 -111.3886 72° East 470 541 28,000  Level Albuquerque Center
Mon 01:44:45 PM 35.1022 -111.2081 72° East 468 539 28,000 -48 Level Albuquerque Center
Mon 01:45:47 PM 35.1411 -111.0633 72° East 469 540 27,900  Descending Albuquerque Center
Mon 01:46:49 PM 35.1875 -110.8933 71° East 471 542 28,000 48 Climbing Albuquerque Center
Mon 01:47:51 PM 35.2253 -110.7469 72° East 472 543 28,000  Level Albuquerque Center
Mon 01:48:53 PM 35.2697 -110.5756 72° East 473 544 28,000 -48 Level Albuquerque Center
Mon 01:49:55 PM 35.3081 -110.4294 72° East 471 542 27,900  Descending Albuquerque Center
Mon 01:50:57 PM 35.3531 -110.2617 72° East 467 537 28,000 48 Climbing Albuquerque Center
Mon 01:51:59 PM 35.3897 -110.1153 73° East 467 537 28,000  Level Albuquerque Center
Mon 01:53:01 PM 35.4339 -109.9458 72° East 469 540 28,000 48 Level Albuquerque Center
Mon 01:54:03 PM 35.4717 -109.7992 72° East 470 541 28,100  Climbing Albuquerque Center
Mon 01:55:05 PM 35.5108 -109.6528 72° East 472 543 28,000 -48 Descending Albuquerque Center
Mon 01:56:07 PM 35.5544 -109.4811 73° East 473 544 28,000  Level Albuquerque Center
Mon 01:57:09 PM 35.5906 -109.3328 73° East 474 545 28,000  Level Albuquerque Center
Mon 01:58:11 PM 35.6347 -109.1614 72° East 473 544 28,000  Level Albuquerque Center
Mon 01:59:13 PM 35.6700 -109.0147 73° East 472 543 28,000  Level Albuquerque Center
Mon 02:00:15 PM 35.7125 -108.8447 73° East 470 541 28,000  Level Albuquerque Center
Mon 02:01:18 PM 35.7489 -108.6989 73° East 470 541 28,000  Level Albuquerque Center
Mon 02:02:19 PM 35.7903 -108.5278 73° East 470 541 28,000  Level Albuquerque Center
Mon 02:03:21 PM 35.8261 -108.3814 73° East 470 541 28,000  Level Albuquerque Center
Mon 02:04:23 PM 35.8675 -108.2122 73° East 466 536 28,000  Level Albuquerque Center
Mon 02:05:25 PM 35.9019 -108.0633 74° East 470 541 28,000  Level Albuquerque Center
Mon 02:06:27 PM 35.9439 -107.8908 73° East 471 542 28,000  Level Albuquerque Center
Mon 02:07:29 PM 35.9789 -107.7417 74° East 473 544 28,000  Level Albuquerque Center
Mon 02:08:31 PM 36.0192 -107.5681 74° East 472 543 28,000  Level Albuquerque Center
Mon 02:09:32 PM 36.0550 -107.4194 73° East 472 543 28,000  Level Albuquerque Center
Mon 02:10:34 PM 36.0950 -107.2450 74° East 473 544 28,000  Level Albuquerque Center
Mon 02:11:36 PM 36.1250 -107.1139 74° East 476 548 28,000  Level Albuquerque Center
Mon 02:12:38 PM 36.1683 -106.9239 74° East 478 550 28,000  Level Albuquerque Center
Mon 02:13:40 PM 36.2031 -106.7661 75° East 478 550 28,000  Level Albuquerque Center
Mon 02:14:42 PM 36.2447 -106.5908 74° East 475 547 28,000  Level Albuquerque Center
Mon 02:15:44 PM 36.2794 -106.4397 74° East 477 549 28,000  Level Albuquerque Center
Mon 02:16:45 PM 36.3131 -106.2881 75° East 477 549 28,000  Level Albuquerque Center
Mon 02:17:47 PM 36.3469 -106.1319 75° East 476 548 28,000  Level Albuquerque Center
Mon 02:18:49 PM 36.3822 -105.9764 74° East 470 541 28,000  Level Albuquerque Center
Mon 02:19:51 PM 36.4217 -105.7853 76° East 475 547 28,000  Level Albuquerque Center
Mon 02:20:53 PM 36.4553 -105.6286 75° East 472 543 28,000  Level Albuquerque Center
Mon 02:21:55 PM 36.4858 -105.4789 76° East 470 541 28,000  Level Albuquerque Center
Mon 02:22:56 PM 36.5233 -105.3042 75° East 470 541 28,000  Level Albuquerque Center
Mon 02:23:58 PM 36.5542 -105.1544 76° East 466 536 28,000  Level Albuquerque Center
Mon 02:25:00 PM 36.5881 -104.9944 75° East 469 540 28,000  Level Albuquerque Center
Mon 02:26:02 PM 36.6208 -104.8347 76° East 471 542 28,000  Level Albuquerque Center
Mon 02:27:04 PM 36.6617 -104.6461 75° East 476 548 28,000  Level Albuquerque Center
Mon 02:28:05 PM 36.7056 -104.5042 69° East 472 543 28,000  Level Albuquerque Center
Mon 02:29:07 PM 36.7603 -104.3328 68° East 475 547 28,000  Level Albuquerque Center
Mon 02:30:09 PM 36.8072 -104.1850 68° East 479 551 28,000  Level Albuquerque Center
Mon 02:31:11 PM 36.8617 -104.0111 69° East 482 555 28,000  Level Albuquerque Center
Mon 02:32:13 PM 36.9069 -103.8633 69° East 480 552 28,000  Level Albuquerque Center
Mon 02:33:15 PM 36.9608 -103.6892 69° East 483 556 28,000  Level Albuquerque Center
Mon 02:34:17 PM 37.0075 -103.5433 68° East 478 550 28,000  Level Albuquerque Center
Mon 02:35:19 PM 37.0553 -103.3969 68° East 477 549 28,000  Level Albuquerque Center
Mon 02:36:21 PM 37.1106 -103.2269 68° East 475 547 28,000  Level Albuquerque Center
Mon 02:37:23 PM 37.1611 -103.0808 66° East 477 549 28,000  Level Albuquerque Center
Mon 02:38:25 PM 37.2194 -102.9114 67° East 477 549 28,000  Level Albuquerque Center
Mon 02:39:27 PM 37.2681 -102.7653 67° East 476 548 28,000  Level Albuquerque Center
Mon 02:40:29 PM 37.3256 -102.5925 67° East 478 550 28,000  Level Albuquerque Center
Mon 02:41:31 PM 37.3669 -102.4394 71° East 482 555 28,000  Level Albuquerque Center
Mon 02:42:33 PM 37.4119 -102.2528 73° East 482 555 28,000  Level Kansas City Center
Mon 02:43:35 PM 37.4192 -102.0922 87° East 479 551 28,000  Level Kansas City Center
Mon 02:44:37 PM 37.4367 -101.9069 83° East 478 550 28,000  Level Kansas City Center
Mon 02:45:39 PM 37.4572 -101.7486 81° East 481 554 28,000  Level Kansas City Center
Mon 02:46:42 PM 37.4844 -101.5636 79° East 481 554 28,000  Level Kansas City Center
Mon 02:47:43 PM 37.5067 -101.4103 80° East 473 544 28,000  Level Kansas City Center
Mon 02:48:45 PM 37.5281 -101.2553 80° East 470 541 28,000  Level Kansas City Center
Mon 02:49:47 PM 37.5519 -101.0786 80° East 466 536 28,000  Level Kansas City Center
Mon 02:50:49 PM 37.5733 -100.9153 81° East 469 540 28,000  Level Kansas City Center
Mon 02:51:52 PM 37.5967 -100.7483 80° East 479 551 28,000  Level Kansas City Center
Mon 02:52:54 PM 37.6194 -100.5844 80° East 475 547 28,000  Level Kansas City Center
Mon 02:53:56 PM 37.6439 -100.4083 80° East 471 542 28,000  Level Kansas City Center
Mon 02:54:58 PM 37.6669 -100.2253 81° East 472 543 28,000  Level Kansas City Center
Mon 02:56:00 PM 37.6875 -100.0686 81° East 475 547 28,000  Level Kansas City Center
Mon 02:57:02 PM 37.7131 -99.8861 80° East 473 544 28,000  Level Kansas City Center
Mon 02:58:04 PM 37.7339 -99.7286 80° East 475 547 28,000  Level Kansas City Center
Mon 02:59:06 PM 37.7883 -99.5564 68° East 472 543 28,000  Level Kansas City Center
Mon 03:00:08 PM 37.8478 -99.4100 63° Northeast 472 543 28,000 -290 Level Kansas City Center
Mon 03:01:10 PM 37.9078 -99.2608 63° Northeast 472 543 27,400 -387 Descending Kansas City Center
Mon 03:02:12 PM 37.9703 -99.1100 62° Northeast 479 551 27,200 -194 Descending Kansas City Center
Mon 03:03:14 PM 38.0336 -98.9597 62° Northeast 482 555 27,000 -97 Descending Kansas City Center
Mon 03:04:16 PM 38.0969 -98.8086 62° Northeast 482 555 27,000  Level Kansas City Center
Mon 03:05:18 PM 38.1597 -98.6561 62° Northeast 487 560 27,000  Level Kansas City Center
Mon 03:06:20 PM 38.2353 -98.4756 62° Northeast 481 554 27,000  Level Kansas City Center
Mon 03:07:22 PM 38.2878 -98.3194 67° East 476 548 27,000  Level Kansas City Center
Mon 03:08:24 PM 38.2967 -98.1511 86° East 474 545 27,000  Level Kansas City Center
Mon 03:09:26 PM 38.2853 -97.9831 95° East 474 545 27,000  Level Kansas City Center
Mon 03:10:28 PM 38.2925 -97.8108 87° East 483 556 27,000  Level Kansas City Center
Mon 03:11:30 PM 38.2886 -97.6408 92° East 477 549 27,000  Level Kansas City Center
Mon 03:12:32 PM 38.2897 -97.4725 89° East 475 547 27,000  Level Kansas City Center
Mon 03:13:34 PM 38.2900 -97.3053 90° East 471 542 27,000  Level Kansas City Center
Mon 03:14:36 PM 38.2917 -97.1019 89° East 476 548 27,000  Level Kansas City Center
Mon 03:15:38 PM 38.2928 -96.9328 89° East 477 549 27,000  Level Kansas City Center
Mon 03:16:41 PM 38.2922 -96.7622 90° East 480 552 27,000  Level Kansas City Center
Mon 03:17:43 PM 38.2931 -96.5953 90° East 474 545 27,000  Level Kansas City Center
Mon 03:18:45 PM 38.2922 -96.4256 90° East 469 540 27,000  Level Kansas City Center
Mon 03:19:47 PM 38.2917 -96.2400 90° East 470 541 27,000  Level Kansas City Center
Mon 03:20:49 PM 38.2900 -96.0789 91° East 475 547 27,000  Level Kansas City Center
Mon 03:21:51 PM 38.2906 -95.8917 90° East 475 547 27,000  Level Kansas City Center
Mon 03:22:53 PM 38.2994 -95.7314 86° East 476 548 27,000  Level Kansas City Center
Mon 03:23:55 PM 38.3131 -95.5422 85° East 482 555 27,000  Level Kansas City Center
Mon 03:24:57 PM 38.3489 -95.3878 73° East 480 552 27,000  Level Kansas City Center
Mon 03:25:59 PM 38.4100 -95.2150 66° East 479 551 27,000  Level Kansas City Center
Mon 03:27:01 PM 38.4608 -95.0639 67° East 484 557 27,000  Level Kansas City Center
Mon 03:28:03 PM 38.5153 -94.8867 69° East 483 556 27,000  Level Kansas City Center
Mon 03:29:05 PM 38.5622 -94.7361 68° East 481 554 27,000  Level Kansas City Center
Mon 03:30:07 PM 38.6208 -94.5622 67° East 480 552 27,000  Level Kansas City Center
Mon 03:31:09 PM 38.6700 -94.4142 67° East 476 548 27,000  Level Kansas City Center
Mon 03:32:11 PM 38.7261 -94.2414 67° East 473 544 27,000  Level Kansas City Center
Mon 03:33:13 PM 38.7750 -94.0931 67° East 474 545 27,000  Level Kansas City Center
Mon 03:34:15 PM 38.8222 -93.9447 68° East 471 542 27,000  Level Kansas City Center
Mon 03:35:17 PM 38.8781 -93.7717 67° East 471 542 27,000  Level Kansas City Center
Mon 03:36:19 PM 38.9283 -93.6189 67° East 474 545 27,000  Level Kansas City Center
Mon 03:37:21 PM 38.9797 -93.4636 67° East 473 544 27,000  Level Kansas City Center
Mon 03:38:23 PM 39.0333 -93.2972 67° East 472 543 27,000  Level Kansas City Center
Mon 03:39:25 PM 39.0808 -93.1456 68° East 466 536 27,000  Level Kansas City Center
Mon 03:40:27 PM 39.1394 -92.9628 67° East 465 535 27,000  Level Kansas City Center
Mon 03:41:29 PM 39.1858 -92.8106 68° East 462 532 27,000  Level Kansas City Center
Mon 03:42:31 PM 39.2314 -92.6606 69° East 458 527 27,000  Level Kansas City Center
Mon 03:43:33 PM 39.2778 -92.5122 68° East 455 524 27,000  Level Kansas City Center
Mon 03:44:35 PM 39.3247 -92.3617 68° East 456 525 27,000  Level Kansas City Center
Mon 03:45:37 PM 39.3794 -92.1858 68° East 450 518 27,000  Level Kansas City Center
Mon 03:46:40 PM 39.4217 -92.0394 69° East 445 512 27,000  Level Kansas City Center
Mon 03:47:42 PM 39.4672 -91.8922 68° East 445 512 27,000  Level Kansas City Center
Mon 03:50:00 PM 39.5889 -91.6915 45° Northeast  Level FlightAware Approximate
Mon 03:50:26 PM 39.6747 -91.5531 45° Northeast 442 509 27,000  Level Chicago Center
Mon 03:51:28 PM 39.7611 -91.4414 45° Northeast 442 509 27,000  Level Chicago Center
Mon 03:52:30 PM 39.8467 -91.3297 45° Northeast 442 509 27,000  Level Chicago Center
Mon 03:53:32 PM 39.9522 -91.1961 44° Northeast 445 512 27,000  Level Chicago Center
Mon 03:54:33 PM 40.0383 -91.0806 46° Northeast 448 516 27,000  Level Chicago Center
Mon 03:55:35 PM 40.1278 -90.9647 45° Northeast 454 522 27,000  Level Chicago Center
Mon 03:56:37 PM 40.2169 -90.8481 45° Northeast 457 526 27,000  Level Chicago Center
Mon 03:57:39 PM 40.3069 -90.7306 45° Northeast 457 526 27,000  Level Chicago Center
Mon 03:58:41 PM 40.3992 -90.6092 45° Northeast 466 536 27,000  Level Chicago Center
Mon 03:59:42 PM 40.4906 -90.4889 45° Northeast 465 535 27,000  Level Chicago Center
Mon 04:00:44 PM 40.6033 -90.3392 45° Northeast 477 549 27,000  Level Chicago Center
Mon 04:01:46 PM 40.6958 -90.2131 46° Northeast 477 549 27,000  Level Chicago Center
Mon 04:02:48 PM 40.7897 -90.0883 45° Northeast 479 551 27,000  Level Chicago Center
Mon 04:03:49 PM 40.8844 -89.9653 44° Northeast 480 552 27,000  Level Chicago Center
Mon 04:04:51 PM 40.9750 -89.8394 46° Northeast 475 547 27,000 -484 Level Chicago Center
Mon 04:05:53 PM 41.0742 -89.7050 46° Northeast 472 543 26,000 -1,452 Descending Chicago Center
Mon 04:06:55 PM 41.1617 -89.5797 47° Northeast 464 534 24,000 -1,659 Descending Chicago Center
Mon 04:07:56 PM 41.2197 -89.4408 61° Northeast 430 495 22,600 -1,707 Descending Chicago Center
Mon 04:08:58 PM 41.2736 -89.3064 62° Northeast 415 478 20,500 -2,081 Descending Chicago Center
Mon 04:10:00 PM 41.3308 -89.1653 62° Northeast 403 464 18,300 -2,000 Descending Chicago Center
Mon 04:11:01 PM 41.3819 -89.0358 62° Northeast 399 459 16,400 -1,902 Descending Chicago Center
Mon 04:12:03 PM 41.4347 -88.9022 62° Northeast 409 471 14,400 -2,419 Descending Chicago Center
Mon 04:13:05 PM 41.4981 -88.7439 62° Northeast 404 465 11,400 -1,694 Descending Chicago Center
Mon 04:14:07 PM 41.5478 -88.6167 62° Northeast 390 449 10,900 -195 Descending Chicago Center
Mon 04:15:08 PM 41.5972 -88.4939 62° Northeast 379 436 11,000  Climbing Chicago Center
Mon 04:16:10 PM 41.6589 -88.3797 54° Northeast 380 437 10,900 -48 Descending Chicago Center
Mon 04:17:12 PM 41.7244 -88.2681 52° Northeast 382 440 10,900 -98 Level Chicago Center
Mon 04:18:13 PM 41.7881 -88.1569 52° Northeast 377 434 10,700 -634 Descending Chicago Center
Mon 04:19:15 PM 41.8447 -88.0628 51° Northeast 332 382 9,600 -865 Descending Chicago Center
Mon 04:20:04 PM 41.8833 -87.9667 62° Northeast 298 343 9,100 -1,046 Descending Chicago TRACON
Mon 04:21:04 PM 41.8833 -87.8667 90° East 274 315 7,700 -1,158 Descending Chicago TRACON
Mon 04:21:58 PM 41.8833 -87.7833 90° East 243 280 6,900 -1,240 Descending Chicago TRACON
Mon 04:23:05 PM 41.8833 -87.6833 90° East 232 267 5,200 -1,323 Descending Chicago TRACON
Mon 04:24:05 PM 41.8833 -87.6000 90° East 211 243 4,100 -600 Descending Chicago TRACON
Mon 04:25:05 PM 41.9333 -87.5833 14° North 202 232 4,000 -100 Descending Chicago TRACON

Login

Don't have an account? Register now (free) for customized features, flight alerts, and more!